sensor_id;sensor_type;location;lat;lon;timestamp;temperature;humidity
10802;DHT22;5453;50.852;7.102;2022-08-01T00:00:36;22.90;98.00
10802;DHT22;5453;50.852;7.102;2022-08-01T00:03:08;22.80;98.00
10802;DHT22;5453;50.852;7.102;2022-08-01T00:05:42;22.80;98.00
10802;DHT22;5453;50.852;7.102;2022-08-01T00:08:15;22.80;98.00
10802;DHT22;5453;50.852;7.102;2022-08-01T00:10:47;22.70;98.00
10802;DHT22;5453;50.852;7.102;2022-08-01T00:13:19;22.70;98.10
10802;DHT22;5453;50.852;7.102;2022-08-01T00:15:51;22.70;98.20
10802;DHT22;5453;50.852;7.102;2022-08-01T00:18:23;22.70;98.30
10802;DHT22;5453;50.852;7.102;2022-08-01T00:20:56;22.70;98.30
10802;DHT22;5453;50.852;7.102;2022-08-01T00:23:28;22.70;98.30
10802;DHT22;5453;50.852;7.102;2022-08-01T00:26:01;22.70;98.40
10802;DHT22;5453;50.852;7.102;2022-08-01T00:28:33;22.70;98.40
10802;DHT22;5453;50.852;7.102;2022-08-01T00:31:06;22.70;98.30
10802;DHT22;5453;50.852;7.102;2022-08-01T00:33:38;22.70;98.40
10802;DHT22;5453;50.852;7.102;2022-08-01T00:36:11;22.70;98.30
10802;DHT22;5453;50.852;7.102;2022-08-01T00:38:43;22.70;98.40
10802;DHT22;5453;50.852;7.102;2022-08-01T00:41:15;22.70;98.50
10802;DHT22;5453;50.852;7.102;2022-08-01T00:43:47;22.70;98.60
10802;DHT22;5453;50.852;7.102;2022-08-01T00:46:19;22.70;98.60
10802;DHT22;5453;50.852;7.102;2022-08-01T00:48:51;22.70;98.70
10802;DHT22;5453;50.852;7.102;2022-08-01T00:51:27;22.70;98.70
10802;DHT22;5453;50.852;7.102;2022-08-01T00:53:59;22.60;98.90
10802;DHT22;5453;50.852;7.102;2022-08-01T00:56:32;22.60;99.10
10802;DHT22;5453;50.852;7.102;2022-08-01T00:59:04;22.60;99.20
10802;DHT22;5453;50.852;7.102;2022-08-01T01:01:37;22.60;99.30
10802;DHT22;5453;50.852;7.102;2022-08-01T01:04:09;22.60;99.40
10802;DHT22;5453;50.852;7.102;2022-08-01T01:06:51;22.60;99.30
10802;DHT22;5453;50.852;7.102;2022-08-01T01:09:34;22.60;99.40
10802;DHT22;5453;50.852;7.102;2022-08-01T01:12:15;22.50;99.40
10802;DHT22;5453;50.852;7.102;2022-08-01T01:14:56;22.50;99.50
10802;DHT22;5453;50.852;7.102;2022-08-01T01:17:39;22.50;99.70
10802;DHT22;5453;50.852;7.102;2022-08-01T01:20:14;22.50;99.80
10802;DHT22;5453;50.852;7.102;2022-08-01T01:22:57;22.50;99.90
10802;DHT22;5453;50.852;7.102;2022-08-01T01:25:53;22.40;99.90
10802;DHT22;5453;50.852;7.102;2022-08-01T01:28:35;22.40;99.90
10802;DHT22;5453;50.852;7.102;2022-08-01T01:31:20;22.40;99.90
10802;DHT22;5453;50.852;7.102;2022-08-01T01:33:54;22.40;99.90
10802;DHT22;5453;50.852;7.102;2022-08-01T01:36:27;22.30;99.90
10802;DHT22;5453;50.852;7.102;2022-08-01T01:39:00;22.20;99.90
10802;DHT22;5453;50.852;7.102;2022-08-01T01:41:35;22.10;99.90
10802;DHT22;5453;50.852;7.102;2022-08-01T01:44:09;22.00;99.90
10802;DHT22;5453;50.852;7.102;2022-08-01T01:46:44;21.90;99.90
10802;DHT22;5453;50.852;7.102;2022-08-01T01:49:19;21.90;99.90
10802;DHT22;5453;50.852;7.102;2022-08-01T01:51:55;21.90;99.90
10802;DHT22;5453;50.852;7.102;2022-08-01T01:54:30;21.90;99.90
10802;DHT22;5453;50.852;7.102;2022-08-01T01:57:04;21.90;99.90
10802;DHT22;5453;50.852;7.102;2022-08-01T01:59:39;21.90;99.90
10802;DHT22;5453;50.852;7.102;2022-08-01T02:02:15;21.80;99.90
10802;DHT22;5453;50.852;7.102;2022-08-01T02:04:48;21.90;99.90
10802;DHT22;5453;50.852;7.102;2022-08-01T02:07:24;21.90;99.90
10802;DHT22;5453;50.852;7.102;2022-08-01T02:09:57;21.90;99.90
10802;DHT22;5453;50.852;7.102;2022-08-01T02:12:34;21.90;99.90
10802;DHT22;5453;50.852;7.102;2022-08-01T02:15:09;21.90;99.90
10802;DHT22;5453;50.852;7.102;2022-08-01T02:17:48;21.90;99.90
10802;DHT22;5453;50.852;7.102;2022-08-01T02:20:21;21.90;99.90
10802;DHT22;5453;50.852;7.102;2022-08-01T02:22:58;22.00;99.90
10802;DHT22;5453;50.852;7.102;2022-08-01T02:25:35;21.90;99.90
10802;DHT22;5453;50.852;7.102;2022-08-01T02:28:13;21.90;99.90
10802;DHT22;5453;50.852;7.102;2022-08-01T02:30:48;21.90;99.90
10802;DHT22;5453;50.852;7.102;2022-08-01T02:33:26;21.90;99.90
10802;DHT22;5453;50.852;7.102;2022-08-01T02:36:03;21.90;99.90
10802;DHT22;5453;50.852;7.102;2022-08-01T02:38:40;21.80;99.90
10802;DHT22;5453;50.852;7.102;2022-08-01T02:41:18;21.80;99.90
10802;DHT22;5453;50.852;7.102;2022-08-01T02:43:58;21.80;99.90
10802;DHT22;5453;50.852;7.102;2022-08-01T02:46:34;21.80;99.90
10802;DHT22;5453;50.852;7.102;2022-08-01T02:49:10;21.70;99.90
10802;DHT22;5453;50.852;7.102;2022-08-01T02:51:44;21.70;99.90
10802;DHT22;5453;50.852;7.102;2022-08-01T02:54:18;21.70;99.90
10802;DHT22;5453;50.852;7.102;2022-08-01T02:56:53;21.70;99.90
10802;DHT22;5453;50.852;7.102;2022-08-01T02:59:28;21.70;99.90
10802;DHT22;5453;50.852;7.102;2022-08-01T03:02:01;21.80;99.90
10802;DHT22;5453;50.852;7.102;2022-08-01T03:04:38;21.70;99.90
10802;DHT22;5453;50.852;7.102;2022-08-01T03:07:12;21.70;99.90
10802;DHT22;5453;50.852;7.102;2022-08-01T03:09:46;21.70;99.90
10802;DHT22;5453;50.852;7.102;2022-08-01T03:12:19;21.70;99.90
10802;DHT22;5453;50.852;7.102;2022-08-01T03:14:56;21.80;99.90
10802;DHT22;5453;50.852;7.102;2022-08-01T03:17:29;21.80;99.90
10802;DHT22;5453;50.852;7.102;2022-08-01T03:20:04;21.80;99.90
10802;DHT22;5453;50.852;7.102;2022-08-01T03:22:39;21.80;99.90
10802;DHT22;5453;50.852;7.102;2022-08-01T03:25:14;21.70;99.90
10802;DHT22;5453;50.852;7.102;2022-08-01T03:27:47;21.70;99.90
10802;DHT22;5453;50.852;7.102;2022-08-01T03:30:24;21.70;99.90
10802;DHT22;5453;50.852;7.102;2022-08-01T03:32:57;21.70;99.90
10802;DHT22;5453;50.852;7.102;2022-08-01T03:35:34;21.70;99.90
10802;DHT22;5453;50.852;7.102;2022-08-01T03:38:10;21.70;99.90
10802;DHT22;5453;50.852;7.102;2022-08-01T03:40:47;21.70;99.90
10802;DHT22;5453;50.852;7.102;2022-08-01T03:43:27;21.70;99.90
10802;DHT22;5453;50.852;7.102;2022-08-01T03:46:05;21.70;99.90
10802;DHT22;5453;50.852;7.102;2022-08-01T03:48:42;21.70;99.90
10802;DHT22;5453;50.852;7.102;2022-08-01T03:51:18;21.70;99.90
10802;DHT22;5453;50.852;7.102;2022-08-01T03:53:51;21.70;99.90
10802;DHT22;5453;50.852;7.102;2022-08-01T03:56:26;21.60;99.90
10802;DHT22;5453;50.852;7.102;2022-08-01T03:59:03;21.60;99.90
10802;DHT22;5453;50.852;7.102;2022-08-01T04:01:36;21.60;99.90
10802;DHT22;5453;50.852;7.102;2022-08-01T04:04:09;21.60;99.90
10802;DHT22;5453;50.852;7.102;2022-08-01T04:06:42;21.60;99.90
10802;DHT22;5453;50.852;7.102;2022-08-01T04:09:15;21.60;99.90
10802;DHT22;5453;50.852;7.102;2022-08-01T04:11:48;21.60;99.90
10802;DHT22;5453;50.852;7.102;2022-08-01T04:14:20;21.60;99.90
10802;DHT22;5453;50.852;7.102;2022-08-01T04:16:53;21.60;99.90
10802;DHT22;5453;50.852;7.102;2022-08-01T04:19:25;21.60;99.90
10802;DHT22;5453;50.852;7.102;2022-08-01T04:21:59;21.60;99.90
10802;DHT22;5453;50.852;7.102;2022-08-01T04:24:34;21.60;99.90
10802;DHT22;5453;50.852;7.102;2022-08-01T04:27:11;21.70;99.90
10802;DHT22;5453;50.852;7.102;2022-08-01T04:29:46;21.60;99.90
10802;DHT22;5453;50.852;7.102;2022-08-01T04:32:21;21.70;99.90
10802;DHT22;5453;50.852;7.102;2022-08-01T04:34:55;21.60;99.90
10802;DHT22;5453;50.852;7.102;2022-08-01T04:37:30;21.60;99.90
10802;DHT22;5453;50.852;7.102;2022-08-01T04:40:03;21.60;99.90
10802;DHT22;5453;50.852;7.102;2022-08-01T04:42:36;21.70;99.90
10802;DHT22;5453;50.852;7.102;2022-08-01T04:45:09;21.70;99.90
10802;DHT22;5453;50.852;7.102;2022-08-01T04:47:43;21.70;99.90
10802;DHT22;5453;50.852;7.102;2022-08-01T04:50:15;21.70;99.90
10802;DHT22;5453;50.852;7.102;2022-08-01T04:52:49;21.70;99.90
10802;DHT22;5453;50.852;7.102;2022-08-01T04:55:22;21.70;99.90
10802;DHT22;5453;50.852;7.102;2022-08-01T04:57:54;21.70;99.90
10802;DHT22;5453;50.852;7.102;2022-08-01T05:00:26;21.70;99.90
10802;DHT22;5453;50.852;7.102;2022-08-01T05:02:59;21.70;99.90
10802;DHT22;5453;50.852;7.102;2022-08-01T05:05:31;21.70;99.90
10802;DHT22;5453;50.852;7.102;2022-08-01T05:08:05;21.70;99.90
10802;DHT22;5453;50.852;7.102;2022-08-01T05:10:37;21.70;99.90
10802;DHT22;5453;50.852;7.102;2022-08-01T05:13:09;21.70;99.90
10802;DHT22;5453;50.852;7.102;2022-08-01T05:15:41;21.70;99.90
10802;DHT22;5453;50.852;7.102;2022-08-01T05:18:14;21.70;99.90
10802;DHT22;5453;50.852;7.102;2022-08-01T05:20:46;21.70;99.90
10802;DHT22;5453;50.852;7.102;2022-08-01T05:23:20;21.60;99.90
10802;DHT22;5453;50.852;7.102;2022-08-01T05:25:52;21.70;99.90
10802;DHT22;5453;50.852;7.102;2022-08-01T05:28:24;21.70;99.90
10802;DHT22;5453;50.852;7.102;2022-08-01T05:30:56;21.70;99.90
10802;DHT22;5453;50.852;7.102;2022-08-01T05:33:29;21.70;99.90
10802;DHT22;5453;50.852;7.102;2022-08-01T05:36:01;21.70;99.90
10802;DHT22;5453;50.852;7.102;2022-08-01T05:38:35;21.70;99.90
10802;DHT22;5453;50.852;7.102;2022-08-01T05:41:07;21.70;99.90
10802;DHT22;5453;50.852;7.102;2022-08-01T05:43:39;21.80;99.90
10802;DHT22;5453;50.852;7.102;2022-08-01T05:46:11;21.80;99.90
10802;DHT22;5453;50.852;7.102;2022-08-01T05:48:43;21.80;99.90
10802;DHT22;5453;50.852;7.102;2022-08-01T05:51:16;21.80;99.90
10802;DHT22;5453;50.852;7.102;2022-08-01T05:53:49;21.80;99.90
10802;DHT22;5453;50.852;7.102;2022-08-01T05:56:22;21.80;99.90
10802;DHT22;5453;50.852;7.102;2022-08-01T05:58:54;21.90;99.90
10802;DHT22;5453;50.852;7.102;2022-08-01T06:01:26;21.90;99.90
10802;DHT22;5453;50.852;7.102;2022-08-01T06:03:59;21.90;99.90
10802;DHT22;5453;50.852;7.102;2022-08-01T06:06:31;21.90;99.90
10802;DHT22;5453;50.852;7.102;2022-08-01T06:09:04;21.90;99.90
10802;DHT22;5453;50.852;7.102;2022-08-01T06:11:37;21.80;99.90
10802;DHT22;5453;50.852;7.102;2022-08-01T06:14:09;21.90;99.90
10802;DHT22;5453;50.852;7.102;2022-08-01T06:16:41;21.80;99.90
10802;DHT22;5453;50.852;7.102;2022-08-01T06:19:13;21.80;99.90
10802;DHT22;5453;50.852;7.102;2022-08-01T06:21:45;21.80;99.90
10802;DHT22;5453;50.852;7.102;2022-08-01T06:24:19;21.90;99.90
10802;DHT22;5453;50.852;7.102;2022-08-01T06:26:53;22.00;99.90
10802;DHT22;5453;50.852;7.102;2022-08-01T06:29:25;22.00;99.90
10802;DHT22;5453;50.852;7.102;2022-08-01T06:31:57;22.10;99.90
10802;DHT22;5453;50.852;7.102;2022-08-01T06:34:29;22.20;99.90
10802;DHT22;5453;50.852;7.102;2022-08-01T06:37:01;22.30;99.90
10802;DHT22;5453;50.852;7.102;2022-08-01T06:39:35;22.40;99.90
10802;DHT22;5453;50.852;7.102;2022-08-01T06:42:07;22.50;99.90
10802;DHT22;5453;50.852;7.102;2022-08-01T06:44:40;22.70;99.90
10802;DHT22;5453;50.852;7.102;2022-08-01T06:47:12;22.70;99.90
10802;DHT22;5453;50.852;7.102;2022-08-01T06:49:44;22.80;99.90
10802;DHT22;5453;50.852;7.102;2022-08-01T06:52:16;22.90;99.90
10802;DHT22;5453;50.852;7.102;2022-08-01T06:54:50;22.90;99.90
10802;DHT22;5453;50.852;7.102;2022-08-01T06:57:22;23.00;99.90
10802;DHT22;5453;50.852;7.102;2022-08-01T06:59:55;23.00;99.90
10802;DHT22;5453;50.852;7.102;2022-08-01T07:02:27;23.10;99.90
10802;DHT22;5453;50.852;7.102;2022-08-01T07:04:59;23.20;99.90
10802;DHT22;5453;50.852;7.102;2022-08-01T07:07:31;23.30;99.90
10802;DHT22;5453;50.852;7.102;2022-08-01T07:10:06;23.40;99.90
10802;DHT22;5453;50.852;7.102;2022-08-01T07:12:39;23.40;99.90
10802;DHT22;5453;50.852;7.102;2022-08-01T07:15:12;23.40;99.90
10802;DHT22;5453;50.852;7.102;2022-08-01T07:17:44;23.40;99.90
10802;DHT22;5453;50.852;7.102;2022-08-01T07:20:16;23.50;99.90
10802;DHT22;5453;50.852;7.102;2022-08-01T07:22:49;23.60;99.90
10802;DHT22;5453;50.852;7.102;2022-08-01T07:25:22;23.60;99.90
10802;DHT22;5453;50.852;7.102;2022-08-01T07:27:55;23.70;99.90
10802;DHT22;5453;50.852;7.102;2022-08-01T07:30:27;23.70;99.90
10802;DHT22;5453;50.852;7.102;2022-08-01T07:32:59;23.70;99.90
10802;DHT22;5453;50.852;7.102;2022-08-01T07:35:31;23.60;99.90
10802;DHT22;5453;50.852;7.102;2022-08-01T07:38:04;23.60;99.90
10802;DHT22;5453;50.852;7.102;2022-08-01T07:40:37;23.60;99.90
10802;DHT22;5453;50.852;7.102;2022-08-01T07:43:10;23.60;99.90
10802;DHT22;5453;50.852;7.102;2022-08-01T07:45:42;23.60;99.90
10802;DHT22;5453;50.852;7.102;2022-08-01T07:48:14;23.50;99.90
10802;DHT22;5453;50.852;7.102;2022-08-01T07:50:46;23.40;99.90
10802;DHT22;5453;50.852;7.102;2022-08-01T07:53:18;23.30;99.90
10802;DHT22;5453;50.852;7.102;2022-08-01T07:55:52;23.30;99.90
10802;DHT22;5453;50.852;7.102;2022-08-01T07:58:24;23.30;99.90
10802;DHT22;5453;50.852;7.102;2022-08-01T08:00:56;23.30;99.90
10802;DHT22;5453;50.852;7.102;2022-08-01T08:03:28;23.30;99.90
10802;DHT22;5453;50.852;7.102;2022-08-01T08:06:01;23.40;99.90
10802;DHT22;5453;50.852;7.102;2022-08-01T08:08:33;23.50;99.90
10802;DHT22;5453;50.852;7.102;2022-08-01T08:11:07;23.50;99.90
10802;DHT22;5453;50.852;7.102;2022-08-01T08:13:39;23.60;99.90
10802;DHT22;5453;50.852;7.102;2022-08-01T08:16:11;23.60;99.90
10802;DHT22;5453;50.852;7.102;2022-08-01T08:18:43;23.60;99.90
10802;DHT22;5453;50.852;7.102;2022-08-01T08:21:15;23.70;99.90
10802;DHT22;5453;50.852;7.102;2022-08-01T08:23:47;24.10;99.90
10802;DHT22;5453;50.852;7.102;2022-08-01T08:26:39;24.50;99.60
10802;DHT22;5453;50.852;7.102;2022-08-01T08:29:11;24.80;98.60
10802;DHT22;5453;50.852;7.102;2022-08-01T08:31:43;25.00;97.90
10802;DHT22;5453;50.852;7.102;2022-08-01T08:34:16;25.10;97.20
10802;DHT22;5453;50.852;7.102;2022-08-01T08:36:48;25.20;96.90
10802;DHT22;5453;50.852;7.102;2022-08-01T08:39:21;25.20;96.50
10802;DHT22;5453;50.852;7.102;2022-08-01T08:41:56;25.10;96.30
10802;DHT22;5453;50.852;7.102;2022-08-01T08:44:28;25.00;96.00
10802;DHT22;5453;50.852;7.102;2022-08-01T08:47:02;24.90;95.90
10802;DHT22;5453;50.852;7.102;2022-08-01T08:49:36;24.80;96.10
10802;DHT22;5453;50.852;7.102;2022-08-01T08:52:09;24.80;96.30
10802;DHT22;5453;50.852;7.102;2022-08-01T08:54:42;25.00;96.40
10802;DHT22;5453;50.852;7.102;2022-08-01T08:57:16;25.10;96.00
10802;DHT22;5453;50.852;7.102;2022-08-01T08:59:51;25.50;96.10
10802;DHT22;5453;50.852;7.102;2022-08-01T09:02:24;26.10;94.90
10802;DHT22;5453;50.852;7.102;2022-08-01T09:04:57;26.40;93.80
10802;DHT22;5453;50.852;7.102;2022-08-01T09:07:30;26.40;93.40
10802;DHT22;5453;50.852;7.102;2022-08-01T09:10:04;26.30;93.50
10802;DHT22;5453;50.852;7.102;2022-08-01T09:12:38;26.10;93.60
10802;DHT22;5453;50.852;7.102;2022-08-01T09:15:10;25.90;93.90
10802;DHT22;5453;50.852;7.102;2022-08-01T09:17:42;25.60;94.00
10802;DHT22;5453;50.852;7.102;2022-08-01T09:20:23;25.30;94.30
10802;DHT22;5453;50.852;7.102;2022-08-01T09:22:55;25.10;94.70
10802;DHT22;5453;50.852;7.102;2022-08-01T09:25:27;25.00;95.10
10802;DHT22;5453;50.852;7.102;2022-08-01T09:28:06;24.90;95.50
10802;DHT22;5453;50.852;7.102;2022-08-01T09:30:38;24.80;95.60
10802;DHT22;5453;50.852;7.102;2022-08-01T09:33:10;24.70;95.80
10802;DHT22;5453;50.852;7.102;2022-08-01T09:35:43;24.50;95.80
10802;DHT22;5453;50.852;7.102;2022-08-01T09:38:17;24.50;96.40
10802;DHT22;5453;50.852;7.102;2022-08-01T09:40:52;24.50;96.70
10802;DHT22;5453;50.852;7.102;2022-08-01T09:43:28;24.50;96.60
10802;DHT22;5453;50.852;7.102;2022-08-01T09:46:05;24.70;97.00
10802;DHT22;5453;50.852;7.102;2022-08-01T09:48:54;25.00;96.60
10802;DHT22;5453;50.852;7.102;2022-08-01T09:51:28;25.20;96.10
10802;DHT22;5453;50.852;7.102;2022-08-01T09:54:03;25.40;96.10
10802;DHT22;5453;50.852;7.102;2022-08-01T09:56:38;25.80;95.60
10802;DHT22;5453;50.852;7.102;2022-08-01T09:59:14;26.10;94.80
10802;DHT22;5453;50.852;7.102;2022-08-01T10:01:47;26.30;94.50
10802;DHT22;5453;50.852;7.102;2022-08-01T10:04:21;26.50;93.80
10802;DHT22;5453;50.852;7.102;2022-08-01T10:07:04;26.70;92.80
10802;DHT22;5453;50.852;7.102;2022-08-01T10:09:37;26.90;92.40
10802;DHT22;5453;50.852;7.102;2022-08-01T10:12:10;27.10;91.90
10802;DHT22;5453;50.852;7.102;2022-08-01T10:14:47;27.00;91.20
10802;DHT22;5453;50.852;7.102;2022-08-01T10:17:20;27.00;90.90
10802;DHT22;5453;50.852;7.102;2022-08-01T10:19:57;27.00;90.90
10802;DHT22;5453;50.852;7.102;2022-08-01T10:22:30;27.10;91.00
10802;DHT22;5453;50.852;7.102;2022-08-01T10:25:05;27.10;90.40
10802;DHT22;5453;50.852;7.102;2022-08-01T10:27:39;27.10;90.10
10802;DHT22;5453;50.852;7.102;2022-08-01T10:30:17;27.00;90.00
10802;DHT22;5453;50.852;7.102;2022-08-01T10:32:50;27.00;90.10
10802;DHT22;5453;50.852;7.102;2022-08-01T10:35:23;27.20;90.20
10802;DHT22;5453;50.852;7.102;2022-08-01T10:37:55;27.30;89.30
10802;DHT22;5453;50.852;7.102;2022-08-01T10:40:29;27.40;88.90
10802;DHT22;5453;50.852;7.102;2022-08-01T10:43:02;27.50;89.00
10802;DHT22;5453;50.852;7.102;2022-08-01T10:45:35;27.40;88.20
10802;DHT22;5453;50.852;7.102;2022-08-01T10:48:14;27.30;88.00
10802;DHT22;5453;50.852;7.102;2022-08-01T10:50:49;27.20;88.00
10802;DHT22;5453;50.852;7.102;2022-08-01T10:53:25;27.30;87.60
10802;DHT22;5453;50.852;7.102;2022-08-01T10:56:00;27.50;86.70
10802;DHT22;5453;50.852;7.102;2022-08-01T10:58:35;27.60;86.60
10802;DHT22;5453;50.852;7.102;2022-08-01T11:01:34;27.80;86.40
10802;DHT22;5453;50.852;7.102;2022-08-01T11:04:08;28.10;84.70
10802;DHT22;5453;50.852;7.102;2022-08-01T11:07:04;28.30;83.90
10802;DHT22;5453;50.852;7.102;2022-08-01T11:09:42;28.40;82.50
10802;DHT22;5453;50.852;7.102;2022-08-01T11:12:18;28.50;81.40
10802;DHT22;5453;50.852;7.102;2022-08-01T11:15:22;28.50;81.00
10802;DHT22;5453;50.852;7.102;2022-08-01T11:18:04;28.40;80.80
10802;DHT22;5453;50.852;7.102;2022-08-01T11:21:04;28.30;81.00
10802;DHT22;5453;50.852;7.102;2022-08-01T11:23:48;28.00;81.30
10802;DHT22;5453;50.852;7.102;2022-08-01T11:26:22;27.70;82.00
10802;DHT22;5453;50.852;7.102;2022-08-01T11:29:13;27.60;82.20
10802;DHT22;5453;50.852;7.102;2022-08-01T11:31:47;27.30;82.60
10802;DHT22;5453;50.852;7.102;2022-08-01T11:34:53;27.10;82.60
10802;DHT22;5453;50.852;7.102;2022-08-01T11:37:27;26.90;83.40
10802;DHT22;5453;50.852;7.102;2022-08-01T11:40:17;26.80;84.10
10802;DHT22;5453;50.852;7.102;2022-08-01T11:43:17;26.70;84.20
10802;DHT22;5453;50.852;7.102;2022-08-01T11:45:50;26.50;84.40
10802;DHT22;5453;50.852;7.102;2022-08-01T11:48:26;26.40;84.60
10802;DHT22;5453;50.852;7.102;2022-08-01T11:51:00;26.40;84.80
10802;DHT22;5453;50.852;7.102;2022-08-01T11:53:32;26.40;84.60
10802;DHT22;5453;50.852;7.102;2022-08-01T11:56:05;26.50;84.60
10802;DHT22;5453;50.852;7.102;2022-08-01T11:58:37;26.50;84.60
10802;DHT22;5453;50.852;7.102;2022-08-01T12:01:12;26.60;84.70
10802;DHT22;5453;50.852;7.102;2022-08-01T12:03:45;26.70;85.00
10802;DHT22;5453;50.852;7.102;2022-08-01T12:06:28;26.90;84.70
10802;DHT22;5453;50.852;7.102;2022-08-01T12:09:15;27.00;84.10
10802;DHT22;5453;50.852;7.102;2022-08-01T12:11:51;27.00;84.80
10802;DHT22;5453;50.852;7.102;2022-08-01T12:14:24;27.10;85.40
10802;DHT22;5453;50.852;7.102;2022-08-01T12:16:56;27.10;84.60
10802;DHT22;5453;50.852;7.102;2022-08-01T12:19:29;27.10;84.50
10802;DHT22;5453;50.852;7.102;2022-08-01T12:22:11;27.10;84.10
10802;DHT22;5453;50.852;7.102;2022-08-01T12:24:44;27.10;83.70
10802;DHT22;5453;50.852;7.102;2022-08-01T12:27:24;27.00;83.40
10802;DHT22;5453;50.852;7.102;2022-08-01T12:29:58;27.00;83.00
10802;DHT22;5453;50.852;7.102;2022-08-01T12:32:32;27.00;83.10
10802;DHT22;5453;50.852;7.102;2022-08-01T12:35:08;27.00;83.00
10802;DHT22;5453;50.852;7.102;2022-08-01T12:37:44;26.80;82.90
10802;DHT22;5453;50.852;7.102;2022-08-01T12:40:18;26.70;83.20
10802;DHT22;5453;50.852;7.102;2022-08-01T12:42:54;26.60;83.60
10802;DHT22;5453;50.852;7.102;2022-08-01T12:45:32;26.60;84.00
10802;DHT22;5453;50.852;7.102;2022-08-01T12:48:08;26.60;83.60
10802;DHT22;5453;50.852;7.102;2022-08-01T12:50:43;26.60;82.90
10802;DHT22;5453;50.852;7.102;2022-08-01T12:53:19;26.60;81.80
10802;DHT22;5453;50.852;7.102;2022-08-01T12:55:53;26.80;80.70
10802;DHT22;5453;50.852;7.102;2022-08-01T12:58:31;27.00;80.20
10802;DHT22;5453;50.852;7.102;2022-08-01T13:01:05;27.10;79.70
10802;DHT22;5453;50.852;7.102;2022-08-01T13:03:38;27.30;79.30
10802;DHT22;5453;50.852;7.102;2022-08-01T13:06:12;27.20;79.00
10802;DHT22;5453;50.852;7.102;2022-08-01T13:08:46;27.10;79.30
10802;DHT22;5453;50.852;7.102;2022-08-01T13:11:18;27.00;79.70
10802;DHT22;5453;50.852;7.102;2022-08-01T13:13:51;26.80;80.20
10802;DHT22;5453;50.852;7.102;2022-08-01T13:16:25;26.70;80.70
10802;DHT22;5453;50.852;7.102;2022-08-01T13:18:57;26.70;81.30
10802;DHT22;5453;50.852;7.102;2022-08-01T13:21:30;26.80;81.30
10802;DHT22;5453;50.852;7.102;2022-08-01T13:24:06;26.90;81.50
10802;DHT22;5453;50.852;7.102;2022-08-01T13:26:42;27.10;81.30
10802;DHT22;5453;50.852;7.102;2022-08-01T13:29:16;27.30;80.00
10802;DHT22;5453;50.852;7.102;2022-08-01T13:31:50;27.50;78.60
10802;DHT22;5453;50.852;7.102;2022-08-01T13:34:30;27.50;78.00
10802;DHT22;5453;50.852;7.102;2022-08-01T13:37:02;27.50;77.00
10802;DHT22;5453;50.852;7.102;2022-08-01T13:39:44;27.50;76.60
10802;DHT22;5453;50.852;7.102;2022-08-01T13:42:16;27.50;76.50
10802;DHT22;5453;50.852;7.102;2022-08-01T13:44:48;27.50;77.00
10802;DHT22;5453;50.852;7.102;2022-08-01T13:47:20;27.40;75.90
10802;DHT22;5453;50.852;7.102;2022-08-01T13:49:52;27.40;75.90
10802;DHT22;5453;50.852;7.102;2022-08-01T13:52:24;27.20;76.10
10802;DHT22;5453;50.852;7.102;2022-08-01T13:54:58;27.20;76.50
10802;DHT22;5453;50.852;7.102;2022-08-01T13:57:31;27.10;76.70
10802;DHT22;5453;50.852;7.102;2022-08-01T14:00:06;27.10;77.20
10802;DHT22;5453;50.852;7.102;2022-08-01T14:02:45;27.20;77.40
10802;DHT22;5453;50.852;7.102;2022-08-01T14:05:18;27.20;77.00
10802;DHT22;5453;50.852;7.102;2022-08-01T14:07:50;27.20;76.90
10802;DHT22;5453;50.852;7.102;2022-08-01T14:10:24;27.20;76.70
10802;DHT22;5453;50.852;7.102;2022-08-01T14:12:56;27.10;76.60
10802;DHT22;5453;50.852;7.102;2022-08-01T14:15:30;27.00;76.20
10802;DHT22;5453;50.852;7.102;2022-08-01T14:18:03;27.00;75.90
10802;DHT22;5453;50.852;7.102;2022-08-01T14:20:37;26.80;76.30
10802;DHT22;5453;50.852;7.102;2022-08-01T14:23:10;26.70;76.60
10802;DHT22;5453;50.852;7.102;2022-08-01T14:25:44;26.70;76.60
10802;DHT22;5453;50.852;7.102;2022-08-01T14:28:16;26.60;76.50
10802;DHT22;5453;50.852;7.102;2022-08-01T14:30:49;26.60;76.60
10802;DHT22;5453;50.852;7.102;2022-08-01T14:33:21;26.50;76.30
10802;DHT22;5453;50.852;7.102;2022-08-01T14:35:55;26.50;76.20
10802;DHT22;5453;50.852;7.102;2022-08-01T14:38:27;26.50;76.00
10802;DHT22;5453;50.852;7.102;2022-08-01T14:41:02;26.50;75.70
10802;DHT22;5453;50.852;7.102;2022-08-01T14:43:34;26.50;74.90
10802;DHT22;5453;50.852;7.102;2022-08-01T14:46:06;26.60;74.70
10802;DHT22;5453;50.852;7.102;2022-08-01T14:48:40;26.60;74.50
10802;DHT22;5453;50.852;7.102;2022-08-01T14:51:13;26.60;74.00
10802;DHT22;5453;50.852;7.102;2022-08-01T14:53:45;26.60;73.70
10802;DHT22;5453;50.852;7.102;2022-08-01T14:56:19;26.60;73.50
10802;DHT22;5453;50.852;7.102;2022-08-01T14:58:52;26.70;73.40
10802;DHT22;5453;50.852;7.102;2022-08-01T15:01:24;26.60;72.80
10802;DHT22;5453;50.852;7.102;2022-08-01T15:03:56;26.70;73.50
10802;DHT22;5453;50.852;7.102;2022-08-01T15:06:28;26.60;73.70
10802;DHT22;5453;50.852;7.102;2022-08-01T15:09:01;26.60;73.80
10802;DHT22;5453;50.852;7.102;2022-08-01T15:11:34;26.70;74.10
10802;DHT22;5453;50.852;7.102;2022-08-01T15:14:06;26.70;73.90
10802;DHT22;5453;50.852;7.102;2022-08-01T15:16:56;26.80;72.90
10802;DHT22;5453;50.852;7.102;2022-08-01T15:19:29;26.80;72.90
10802;DHT22;5453;50.852;7.102;2022-08-01T15:22:01;26.80;73.00
10802;DHT22;5453;50.852;7.102;2022-08-01T15:24:33;26.80;72.50
10802;DHT22;5453;50.852;7.102;2022-08-01T15:27:07;26.90;72.60
10802;DHT22;5453;50.852;7.102;2022-08-01T15:29:39;26.90;72.70
10802;DHT22;5453;50.852;7.102;2022-08-01T15:32:12;27.00;72.40
10802;DHT22;5453;50.852;7.102;2022-08-01T15:34:44;27.00;72.30
10802;DHT22;5453;50.852;7.102;2022-08-01T15:37:17;26.90;72.20
10802;DHT22;5453;50.852;7.102;2022-08-01T15:39:49;26.90;72.00
10802;DHT22;5453;50.852;7.102;2022-08-01T15:42:23;26.90;72.10
10802;DHT22;5453;50.852;7.102;2022-08-01T15:44:55;26.80;72.00
10802;DHT22;5453;50.852;7.102;2022-08-01T15:47:27;26.80;72.10
10802;DHT22;5453;50.852;7.102;2022-08-01T15:49:59;26.80;72.20
10802;DHT22;5453;50.852;7.102;2022-08-01T15:52:32;26.80;72.70
10802;DHT22;5453;50.852;7.102;2022-08-01T15:55:05;26.80;72.90
10802;DHT22;5453;50.852;7.102;2022-08-01T15:57:39;26.70;73.20
10802;DHT22;5453;50.852;7.102;2022-08-01T16:00:11;26.70;73.30
10802;DHT22;5453;50.852;7.102;2022-08-01T16:02:44;26.70;73.50
10802;DHT22;5453;50.852;7.102;2022-08-01T16:05:16;26.60;73.60
10802;DHT22;5453;50.852;7.102;2022-08-01T16:07:49;26.60;73.80
10802;DHT22;5453;50.852;7.102;2022-08-01T16:10:21;26.60;74.00
10802;DHT22;5453;50.852;7.102;2022-08-01T16:12:55;26.60;74.20
10802;DHT22;5453;50.852;7.102;2022-08-01T16:15:27;26.60;73.90
10802;DHT22;5453;50.852;7.102;2022-08-01T16:17:59;26.60;74.00
10802;DHT22;5453;50.852;7.102;2022-08-01T16:20:31;26.60;74.00
10802;DHT22;5453;50.852;7.102;2022-08-01T16:23:04;26.60;73.80
10802;DHT22;5453;50.852;7.102;2022-08-01T16:25:36;26.60;73.80
10802;DHT22;5453;50.852;7.102;2022-08-01T16:28:10;26.50;73.60
10802;DHT22;5453;50.852;7.102;2022-08-01T16:30:44;26.50;73.80